createdAt,value
2023-04-08T00:00:52.147Z,225.10
2023-04-08T00:01:51.458Z,225.72
2023-04-08T00:02:51.451Z,226.65
2023-04-08T00:03:51.449Z,226.97
2023-04-08T00:04:51.406Z,225.87
2023-04-08T00:05:51.338Z,226.65
2023-04-08T00:06:51.299Z,226.65
2023-04-08T00:07:51.326Z,226.50
2023-04-08T00:08:51.445Z,227.76
2023-04-08T00:09:51.294Z,226.50
2023-04-08T00:10:51.287Z,226.97
2023-04-08T00:11:51.013Z,227.91
2023-04-08T00:12:51.237Z,227.91
2023-04-08T00:13:51.238Z,227.28
2023-04-08T00:14:50.540Z,226.65
2023-04-08T00:15:51.197Z,228.23
2023-04-08T00:16:51.195Z,227.76
2023-04-08T00:17:51.941Z,228.39
2023-04-08T00:18:51.392Z,228.07
2023-04-08T00:19:51.163Z,228.55
2023-04-08T00:20:51.128Z,228.71
2023-04-08T00:21:51.097Z,229.51
2023-04-08T00:22:50.788Z,229.03
2023-04-08T00:23:51.088Z,227.60
2023-04-08T00:24:51.073Z,227.91
2023-04-08T00:25:50.866Z,229.99
2023-04-08T00:26:51.028Z,229.83
2023-04-08T00:27:51.051Z,229.35
2023-04-08T00:28:51.200Z,229.83
2023-04-08T00:29:51.684Z,230.80
2023-04-08T00:30:50.907Z,229.67
2023-04-08T00:31:50.962Z,229.19
2023-04-08T00:32:50.999Z,230.15
2023-04-08T00:33:51.688Z,230.15
2023-04-08T00:34:51.677Z,231.45
2023-04-08T00:35:51.694Z,229.19
2023-04-08T00:36:51.637Z,230.64
2023-04-08T00:37:51.628Z,230.48
2023-04-08T00:38:51.649Z,229.99
2023-04-08T00:39:51.587Z,230.15
2023-04-08T00:40:51.589Z,232.60
2023-04-08T00:41:51.574Z,230.31
2023-04-08T00:42:51.552Z,231.61
2023-04-08T00:43:51.547Z,231.61
2023-04-08T00:44:51.032Z,231.94
2023-04-08T00:45:50.788Z,232.27
2023-04-08T00:46:50.766Z,230.80
2023-04-08T00:47:50.802Z,232.10
2023-04-08T00:48:50.914Z,231.61
2023-04-08T00:49:50.760Z,230.31
2023-04-08T00:50:50.721Z,231.29
2023-04-08T00:51:50.756Z,231.45
2023-04-08T00:52:50.704Z,231.61
2023-04-08T00:53:50.683Z,230.96
2023-04-08T00:54:51.373Z,232.27
2023-04-08T00:55:50.659Z,231.45
2023-04-08T00:56:50.644Z,230.64
2023-04-08T00:57:50.645Z,230.80
2023-04-08T00:58:50.806Z,231.61
2023-04-08T00:59:50.598Z,231.45
2023-04-08T01:00:50.600Z,230.64
2023-04-08T01:01:51.311Z,231.61
2023-04-08T01:02:50.753Z,230.64
2023-04-08T01:03:50.604Z,231.45
2023-04-08T01:04:50.530Z,230.80
2023-04-08T01:05:50.524Z,231.29
2023-04-08T01:06:50.508Z,229.99
2023-04-08T01:07:51.172Z,229.67
2023-04-08T01:08:50.680Z,228.07
2023-04-08T01:09:50.470Z,229.99
2023-04-08T01:10:50.452Z,230.31
2023-04-08T01:11:50.418Z,229.19
2023-04-08T01:12:50.665Z,230.64
2023-04-08T01:13:51.087Z,230.48
2023-04-08T01:14:50.414Z,230.31
2023-04-08T01:15:51.112Z,231.12
2023-04-08T01:16:50.349Z,231.61
2023-04-08T01:17:50.409Z,229.83
2023-04-08T01:18:50.194Z,230.31
2023-04-08T01:19:50.329Z,230.80
2023-04-08T01:20:50.319Z,231.45
2023-04-08T01:21:50.281Z,231.78
2023-04-08T01:22:50.972Z,231.94
2023-04-08T01:23:50.978Z,231.61
2023-04-08T01:24:50.956Z,232.76
2023-04-08T01:25:50.930Z,232.93
2023-04-08T01:26:49.597Z,232.43
2023-04-08T01:27:50.220Z,233.10
2023-04-08T01:28:50.372Z,232.60
2023-04-08T01:29:50.918Z,231.78
2023-04-08T01:30:50.208Z,232.76
2023-04-08T01:31:50.168Z,232.27
2023-04-08T01:32:50.174Z,232.43
2023-04-08T01:33:50.142Z,234.09
2023-04-08T01:34:50.127Z,233.43
2023-04-08T01:35:50.833Z,233.26
2023-04-08T01:36:50.788Z,233.76
2023-04-08T01:37:50.064Z,232.27
2023-04-08T01:38:50.196Z,233.76
2023-04-08T01:39:50.065Z,233.93
2023-04-08T01:40:50.053Z,236.62
2023-04-08T01:41:50.073Z,232.10
2023-04-08T01:42:49.999Z,234.09
2023-04-08T01:43:50.691Z,232.43
2023-04-08T01:44:49.991Z,233.26
2023-04-08T01:45:49.986Z,232.60
2023-04-08T01:46:50.787Z,233.10
2023-04-08T01:47:49.962Z,233.43
2023-04-08T01:48:50.193Z,235.10
2023-04-08T01:49:49.934Z,233.59
2023-04-08T01:50:49.966Z,233.43
2023-04-08T01:51:49.948Z,233.43
2023-04-08T01:52:50.590Z,233.43
2023-04-08T01:53:49.878Z,233.59
2023-04-08T01:54:49.887Z,234.43
2023-04-08T01:55:50.532Z,232.43
2023-04-08T01:56:50.522Z,233.26
2023-04-08T01:57:50.059Z,233.26
2023-04-08T01:58:50.747Z,232.27
2023-04-08T01:59:49.793Z,233.43
2023-04-08T02:00:50.464Z,234.26
2023-04-08T02:01:49.866Z,232.27
2023-04-08T02:02:50.218Z,234.76
2023-04-08T02:03:49.800Z,233.93
2023-04-08T02:04:49.868Z,233.26
2023-04-08T02:05:50.381Z,234.26
2023-04-08T02:06:50.381Z,233.26
2023-04-08T02:07:49.696Z,233.93
2023-04-08T02:08:50.061Z,233.10
2023-04-08T02:09:49.653Z,235.44
2023-04-08T02:10:49.652Z,234.43
2023-04-08T02:11:49.639Z,234.76
2023-04-08T02:12:49.602Z,233.76
2023-04-08T02:13:49.618Z,234.26
2023-04-08T02:14:49.597Z,234.93
2023-04-08T02:15:49.655Z,233.26
2023-04-08T02:16:49.590Z,234.09
2023-04-08T02:17:49.617Z,233.10
2023-04-08T02:18:49.704Z,233.76
2023-04-08T02:19:49.543Z,231.45
2023-04-08T02:20:50.199Z,232.27
2023-04-08T02:21:49.493Z,232.10
2023-04-08T02:22:49.465Z,232.93
2023-04-08T02:23:50.132Z,232.60
2023-04-08T02:24:50.123Z,231.61
2023-04-08T02:25:50.169Z,233.26
2023-04-08T02:26:49.472Z,231.61
2023-04-08T02:27:49.145Z,232.76
2023-04-08T02:28:49.614Z,232.60
2023-04-08T02:29:49.148Z,232.76
2023-04-08T02:30:49.142Z,233.10
2023-04-08T02:31:49.220Z,232.60
2023-04-08T02:32:49.192Z,231.61
2023-04-08T02:33:49.336Z,235.10
2023-04-08T02:34:49.312Z,232.43
2023-04-08T02:35:49.312Z,233.59
2023-04-08T02:36:49.294Z,231.94
2023-04-08T02:37:49.298Z,233.10
2023-04-08T02:38:48.826Z,233.10
2023-04-08T02:39:48.651Z,233.43
2023-04-08T02:40:49.253Z,232.93
2023-04-08T02:41:48.721Z,232.76
2023-04-08T02:42:49.964Z,233.10
2023-04-08T02:43:48.778Z,233.59
2023-04-08T02:44:49.872Z,233.76
2023-04-08T02:45:49.183Z,233.59
2023-04-08T02:46:48.867Z,233.59
2023-04-08T02:47:48.924Z,235.27
2023-04-08T02:48:49.188Z,233.10
2023-04-08T02:49:49.125Z,234.76
2023-04-08T02:50:49.109Z,232.27
2023-04-08T02:51:49.771Z,233.43
2023-04-08T02:52:49.078Z,233.93
2023-04-08T02:53:49.033Z,233.26
2023-04-08T02:54:49.729Z,233.76
2023-04-08T02:55:49.752Z,232.27
2023-04-08T02:56:49.738Z,232.43
2023-04-08T02:57:49.755Z,233.93
2023-04-08T02:58:49.857Z,234.43
2023-04-08T02:59:49.695Z,233.59
2023-04-08T03:00:49.750Z,233.76
2023-04-08T03:01:49.066Z,234.43
2023-04-08T03:02:49.887Z,233.10
2023-04-08T03:03:49.739Z,234.43
2023-04-08T03:04:48.911Z,234.26
2023-04-08T03:05:48.896Z,234.76
2023-04-08T03:06:48.881Z,233.93
2023-04-08T03:07:48.911Z,233.93
2023-04-08T03:08:49.743Z,234.26
2023-04-08T03:09:48.840Z,233.59
2023-04-08T03:10:49.057Z,234.76
2023-04-08T03:11:48.167Z,232.93
2023-04-08T03:12:48.796Z,234.60
2023-04-08T03:13:48.761Z,233.43
2023-04-08T03:14:48.812Z,233.76
2023-04-08T03:15:49.434Z,232.10
2023-04-08T03:16:48.788Z,233.26
2023-04-08T03:17:48.764Z,233.10
2023-04-08T03:18:48.908Z,234.43
2023-04-08T03:19:48.710Z,234.09
2023-04-08T03:20:48.697Z,235.60
2023-04-08T03:21:48.686Z,234.76
2023-04-08T03:22:48.669Z,233.26
2023-04-08T03:23:48.619Z,233.76
2023-04-08T03:24:48.650Z,233.76
2023-04-08T03:25:49.288Z,234.60
2023-04-08T03:26:48.612Z,233.59
2023-04-08T03:27:48.600Z,232.93
2023-04-08T03:28:48.779Z,233.76
2023-04-08T03:29:48.627Z,232.93
2023-04-08T03:30:48.563Z,232.93
2023-04-08T03:31:49.211Z,233.26
2023-04-08T03:32:48.784Z,233.59
2023-04-08T03:33:49.189Z,233.43
2023-04-08T03:34:48.501Z,232.93
2023-04-08T03:35:48.526Z,232.60
2023-04-08T03:36:48.472Z,232.60
2023-04-08T03:37:48.460Z,234.60
2023-04-08T03:38:48.587Z,232.43
2023-04-08T03:39:47.696Z,232.60
2023-04-08T03:40:48.419Z,231.78
2023-04-08T03:41:47.704Z,231.78
2023-04-08T03:42:48.388Z,230.31
2023-04-08T03:43:47.694Z,231.61
2023-04-08T03:44:48.371Z,233.10
2023-04-08T03:45:49.045Z,230.96
2023-04-08T03:46:48.329Z,229.99
2023-04-08T03:47:47.772Z,232.60
2023-04-08T03:48:48.675Z,229.99
2023-04-08T03:49:47.691Z,230.64
2023-04-08T03:50:48.289Z,230.64
2023-04-08T03:51:47.693Z,230.15
2023-04-08T03:52:48.247Z,230.15
2023-04-08T03:53:47.700Z,230.48
2023-04-08T03:54:48.246Z,230.80
2023-04-08T03:55:48.209Z,230.80
2023-04-08T03:56:48.218Z,233.26
2023-04-08T03:57:47.696Z,232.60
2023-04-08T03:58:48.198Z,230.64
2023-04-08T03:59:47.715Z,229.67
2023-04-08T04:00:48.149Z,232.76
2023-04-08T04:01:48.232Z,230.64
2023-04-08T04:02:48.192Z,230.80
2023-04-08T04:03:48.879Z,232.43
2023-04-08T04:04:48.114Z,231.45
2023-04-08T04:05:48.076Z,230.80
2023-04-08T04:06:48.064Z,231.45
2023-04-08T04:07:48.043Z,231.12
2023-04-08T04:08:48.291Z,230.80
2023-04-08T04:09:48.013Z,230.15
2023-04-08T04:10:48.005Z,230.96
2023-04-08T04:11:47.994Z,230.15
2023-04-08T04:12:47.974Z,230.48
2023-04-08T04:13:47.951Z,230.15
2023-04-08T04:14:47.962Z,229.99
2023-04-08T04:15:48.660Z,229.67
2023-04-08T04:16:47.943Z,230.31
2023-04-08T04:17:47.939Z,230.64
2023-04-08T04:18:47.952Z,230.64
2023-04-08T04:19:47.894Z,230.64
2023-04-08T04:20:47.864Z,229.35
2023-04-08T04:21:47.860Z,230.64
2023-04-08T04:22:47.858Z,231.29
2023-04-08T04:23:47.805Z,229.67
2023-04-08T04:24:48.501Z,230.64
2023-04-08T04:25:47.886Z,229.99
2023-04-08T04:26:48.470Z,231.29
2023-04-08T04:27:47.791Z,231.61
2023-04-08T04:28:48.819Z,231.78
2023-04-08T04:29:48.419Z,229.67
2023-04-08T04:30:47.789Z,231.61
2023-04-08T04:31:47.713Z,229.99
2023-04-08T04:32:47.744Z,230.48
2023-04-08T04:33:47.685Z,230.96
2023-04-08T04:34:47.718Z,230.80
2023-04-08T04:35:48.364Z,230.48
2023-04-08T04:36:47.656Z,229.83
2023-04-08T04:37:47.631Z,230.48
2023-04-08T04:38:50.082Z,229.67
2023-04-08T04:39:48.328Z,230.48
2023-04-08T04:40:47.603Z,230.80
2023-04-08T04:41:47.591Z,231.61
2023-04-08T04:42:47.572Z,230.31
2023-04-08T04:43:48.237Z,229.51
2023-04-08T04:44:48.288Z,230.31
2023-04-08T04:45:48.196Z,229.99
2023-04-08T04:46:47.594Z,230.80
2023-04-08T04:47:47.284Z,230.15
2023-04-08T04:48:47.607Z,229.67
2023-04-08T04:49:47.239Z,231.45
2023-04-08T04:50:47.229Z,229.51
2023-04-08T04:51:47.242Z,230.48
2023-04-08T04:52:47.447Z,229.35
2023-04-08T04:53:47.239Z,230.80
2023-04-08T04:54:47.386Z,230.15
2023-04-08T04:55:46.676Z,229.99
2023-04-08T04:56:47.377Z,229.35
2023-04-08T04:57:47.364Z,228.39
2023-04-08T04:58:47.370Z,228.07
2023-04-08T04:59:47.321Z,229.67
2023-04-08T05:00:47.323Z,227.76
2023-04-08T05:01:48.248Z,229.51
2023-04-08T05:02:47.457Z,229.03
2023-04-08T05:03:47.326Z,228.71
2023-04-08T05:04:47.282Z,228.39
2023-04-08T05:05:47.255Z,227.91
2023-04-08T05:06:47.251Z,229.67
2023-04-08T05:07:47.245Z,229.19
2023-04-08T05:08:47.283Z,229.35
2023-04-08T05:09:47.189Z,228.71
2023-04-08T05:10:47.003Z,229.35
2023-04-08T05:11:47.184Z,228.39
2023-04-08T05:12:47.897Z,227.91
2023-04-08T05:13:47.163Z,228.71
2023-04-08T05:14:47.123Z,228.07
2023-04-08T05:15:47.151Z,228.71
2023-04-08T05:16:47.856Z,228.55
2023-04-08T05:17:47.908Z,228.71
2023-04-08T05:18:47.925Z,229.03
2023-04-08T05:19:47.834Z,227.76
2023-04-08T05:20:47.788Z,227.44
2023-04-08T05:21:47.769Z,228.39
2023-04-08T05:22:47.049Z,226.65
2023-04-08T05:23:47.027Z,226.34
2023-04-08T05:24:46.984Z,227.12
2023-04-08T05:25:47.013Z,225.25
2023-04-08T05:26:46.984Z,225.41
2023-04-08T05:27:47.039Z,226.81
2023-04-08T05:28:47.760Z,225.87
2023-04-08T05:29:46.925Z,226.03
2023-04-08T05:30:46.926Z,226.03
2023-04-08T05:31:47.032Z,225.10
2023-04-08T05:32:47.648Z,225.56
2023-04-08T05:33:46.887Z,225.10
2023-04-08T05:34:46.857Z,224.48
2023-04-08T05:35:47.607Z,225.25
2023-04-08T05:36:46.844Z,224.95
2023-04-08T05:37:46.835Z,223.41
2023-04-08T05:38:46.827Z,224.48
2023-04-08T05:39:46.790Z,223.57
2023-04-08T05:40:46.801Z,223.41
2023-04-08T05:41:47.460Z,223.11
2023-04-08T05:42:46.782Z,222.65
2023-04-08T05:43:46.762Z,222.81
2023-04-08T05:44:46.716Z,222.20
2023-04-08T05:45:46.753Z,222.96
2023-04-08T05:46:46.816Z,225.25
2023-04-08T05:47:47.410Z,220.56
2023-04-08T05:48:46.735Z,221.75
2023-04-08T05:49:46.667Z,222.05
2023-04-08T05:50:46.669Z,220.71
2023-04-08T05:51:46.648Z,219.97
2023-04-08T05:52:46.705Z,219.09
2023-04-08T05:53:46.648Z,225.10
2023-04-08T05:54:46.593Z,223.41
2023-04-08T05:55:46.609Z,223.11
2023-04-08T05:56:47.272Z,219.53
2023-04-08T05:57:46.562Z,218.65
2023-04-08T05:58:46.553Z,220.26
2023-04-08T05:59:46.511Z,218.07
2023-04-08T06:00:47.248Z,219.38
2023-04-08T06:01:47.271Z,217.63
2023-04-08T06:02:46.609Z,218.94
2023-04-08T06:03:46.590Z,217.20
2023-04-08T06:04:46.591Z,219.23
2023-04-08T06:05:45.822Z,216.63
2023-04-08T06:06:46.442Z,217.06
2023-04-08T06:07:46.432Z,215.91
2023-04-08T06:08:45.815Z,219.53
2023-04-08T06:09:46.379Z,213.94
2023-04-08T06:10:46.384Z,217.35
2023-04-08T06:11:46.385Z,217.92
2023-04-08T06:12:46.357Z,215.63
2023-04-08T06:13:45.809Z,217.20
2023-04-08T06:14:46.313Z,212.01
2023-04-08T06:15:46.313Z,214.64
2023-04-08T06:16:46.310Z,210.24
2023-04-08T06:17:46.342Z,212.15
2023-04-08T06:18:46.281Z,210.38
2023-04-08T06:19:46.955Z,212.28
2023-04-08T06:20:46.271Z,208.37
2023-04-08T06:21:46.232Z,207.71
2023-04-08T06:22:46.216Z,208.24
2023-04-08T06:23:46.213Z,208.24
2023-04-08T06:24:46.163Z,206.93
2023-04-08T06:25:46.185Z,206.02
2023-04-08T06:26:46.173Z,204.22
2023-04-08T06:27:46.144Z,205.24
2023-04-08T06:28:46.399Z,204.22
2023-04-08T06:29:47.081Z,202.33
2023-04-08T06:30:46.794Z,202.33
2023-04-08T06:31:46.138Z,201.71
2023-04-08T06:32:46.116Z,201.22
2023-04-08T06:33:46.745Z,200.11
2023-04-08T06:34:46.046Z,198.06
2023-04-08T06:35:46.845Z,199.14
2023-04-08T06:36:46.026Z,196.87
2023-04-08T06:37:46.737Z,197.35
2023-04-08T06:38:46.005Z,194.54
2023-04-08T06:39:45.969Z,192.93
2023-04-08T06:40:45.980Z,192.26
2023-04-08T06:41:45.964Z,191.70
2023-04-08T06:42:45.944Z,189.59
2023-04-08T06:43:45.936Z,189.37
2023-04-08T06:44:45.894Z,188.72
2023-04-08T06:45:46.001Z,186.68
2023-04-08T06:46:45.903Z,185.83
2023-04-08T06:47:45.894Z,185.20
2023-04-08T06:48:45.874Z,186.45
2023-04-08T06:49:45.824Z,184.80
2023-04-08T06:50:45.839Z,183.18
2023-04-08T06:51:45.826Z,182.18
2023-04-08T06:52:45.807Z,182.58
2023-04-08T06:53:46.518Z,179.82
2023-04-08T06:54:45.816Z,178.67
2023-04-08T06:55:45.766Z,175.84
2023-04-08T06:56:45.777Z,174.01
2023-04-08T06:57:46.428Z,172.57
2023-04-08T06:58:45.723Z,171.51
2023-04-08T06:59:45.709Z,169.76
2023-04-08T07:00:45.715Z,167.21
2023-04-08T07:01:46.489Z,165.39
2023-04-08T07:02:45.913Z,162.01
2023-04-08T07:03:45.809Z,161.39
2023-04-08T07:04:46.865Z,158.93
2023-04-08T07:05:45.636Z,155.81
2023-04-08T07:06:45.351Z,153.66
2023-04-08T07:07:45.605Z,150.88
2023-04-08T07:08:45.349Z,150.34
2023-04-08T07:09:45.338Z,148.86
2023-04-08T07:10:45.291Z,147.68
2023-04-08T07:11:45.556Z,146.00
2023-04-08T07:12:45.355Z,143.86
2023-04-08T07:13:46.195Z,141.18
2023-04-08T07:14:45.358Z,139.29
2023-04-08T07:15:45.517Z,137.91
2023-04-08T07:16:45.456Z,136.11
2023-04-08T07:17:45.367Z,135.34
2023-04-08T07:18:45.361Z,133.61
2023-04-08T07:19:45.439Z,131.50
2023-04-08T07:20:44.821Z,130.47
2023-04-08T07:21:45.418Z,129.56
2023-04-08T07:22:45.423Z,127.78
2023-04-08T07:23:45.392Z,126.04
2023-04-08T07:24:44.665Z,125.28
2023-04-08T07:25:46.105Z,124.91
2023-04-08T07:26:44.869Z,122.97
2023-04-08T07:27:45.339Z,122.16
2023-04-08T07:28:44.914Z,120.92
2023-04-08T07:29:45.288Z,120.05
2023-04-08T07:30:45.379Z,119.37
2023-04-08T07:31:45.969Z,118.77
2023-04-08T07:32:45.074Z,117.85
2023-04-08T07:33:45.293Z,117.93
2023-04-08T07:34:45.221Z,117.85
2023-04-08T07:35:45.943Z,117.02
2023-04-08T07:36:45.225Z,116.61
2023-04-08T07:37:45.197Z,116.94
2023-04-08T07:38:45.912Z,116.29
2023-04-08T07:39:45.149Z,116.29
2023-04-08T07:40:45.875Z,115.89
2023-04-08T07:41:45.147Z,115.72
2023-04-08T07:42:45.140Z,116.05
2023-04-08T07:43:45.795Z,116.21
2023-04-08T07:44:44.399Z,118.52
2023-04-08T07:45:45.172Z,118.60
2023-04-08T07:46:45.080Z,117.77
2023-04-08T07:47:45.097Z,118.77
2023-04-08T07:48:45.103Z,118.43
2023-04-08T07:49:45.016Z,119.97
2023-04-08T07:51:08.480Z,120.49
2023-04-08T07:51:46.008Z,121.54
2023-04-08T07:52:45.668Z,122.79
2023-04-08T07:53:44.993Z,123.79
2023-04-08T07:54:44.967Z,125.47
2023-04-08T07:55:44.945Z,126.23
2023-04-08T07:56:44.997Z,128.07
2023-04-08T07:57:45.597Z,130.99
2023-04-08T07:58:44.933Z,132.55
2023-04-08T07:59:44.909Z,133.07
2023-04-08T08:00:44.297Z,133.93
2023-04-08T08:01:44.899Z,135.89
2023-04-08T08:02:44.955Z,137.57
2023-04-08T08:03:44.945Z,140.94
2023-04-08T08:04:44.924Z,142.75
2023-04-08T08:05:44.833Z,145.11
2023-04-08T08:06:44.804Z,147.03
2023-04-08T08:07:44.827Z,150.20
2023-04-08T08:08:44.795Z,151.43
2023-04-08T08:09:44.767Z,152.40
2023-04-08T08:10:44.735Z,152.40
2023-04-08T08:11:44.742Z,153.80
2023-04-08T08:12:44.729Z,155.52
2023-04-08T08:13:44.709Z,157.28
2023-04-08T08:14:44.242Z,158.63
2023-04-08T08:15:44.705Z,160.77
2023-04-08T08:16:44.908Z,160.46
2023-04-08T08:17:44.753Z,161.70
2023-04-08T08:18:44.639Z,163.44
2023-04-08T08:19:44.628Z,167.04
2023-04-08T08:20:44.597Z,168.05
2023-04-08T08:21:44.599Z,167.38
2023-04-08T08:22:54.479Z,168.56
2023-04-08T08:23:45.593Z,168.39
2023-04-08T08:24:43.838Z,169.93
2023-04-08T08:25:44.541Z,169.76
2023-04-08T08:26:44.550Z,169.76
2023-04-08T08:27:44.627Z,170.80
2023-04-08T08:28:44.012Z,170.11
2023-04-08T08:29:44.518Z,169.07
2023-04-08T08:30:43.758Z,170.11
2023-04-08T08:31:44.535Z,172.57
2023-04-08T08:32:44.492Z,175.29
2023-04-08T08:33:44.447Z,177.53
2023-04-08T08:34:43.972Z,180.80
2023-04-08T08:35:44.430Z,182.38
2023-04-08T08:36:43.940Z,185.83
2023-04-08T08:37:44.381Z,186.45
2023-04-08T08:38:44.405Z,186.36
2023-04-08T08:39:44.359Z,188.39
2023-04-08T08:40:44.322Z,188.39
2023-04-08T08:41:44.342Z,192.03
2023-04-08T08:42:44.320Z,194.08
2023-04-08T08:43:44.297Z,196.05
2023-04-08T08:44:44.298Z,196.40
2023-04-08T08:45:44.244Z,198.42
2023-04-08T08:46:44.334Z,199.75
2023-04-08T08:47:44.272Z,204.22
2023-04-08T08:48:44.239Z,207.58
2023-04-08T08:49:44.217Z,210.38
2023-04-08T08:50:44.195Z,210.65
2023-04-08T08:51:44.192Z,211.74
2023-04-08T08:52:44.188Z,216.77
2023-04-08T08:53:44.166Z,219.09
2023-04-08T08:54:44.165Z,219.82
2023-04-08T08:56:13.479Z,218.79
2023-04-08T08:56:45.130Z,223.26
2023-04-08T08:57:44.117Z,225.87
2023-04-08T08:58:44.787Z,226.50
2023-04-08T08:59:44.088Z,228.07
2023-04-08T09:00:43.347Z,229.03
2023-04-08T09:01:44.151Z,233.43
2023-04-08T09:02:44.231Z,233.10
2023-04-08T09:03:44.236Z,234.60
2023-04-08T09:04:44.158Z,235.44
2023-04-08T09:05:44.065Z,238.86
2023-04-08T09:06:44.665Z,239.39
2023-04-08T09:07:43.978Z,240.62
2023-04-08T09:08:43.230Z,241.86
2023-04-08T09:09:43.949Z,242.75
2023-04-08T09:10:43.948Z,246.03
2023-04-08T09:11:43.944Z,248.64
2023-04-08T09:12:43.911Z,252.46
2023-04-08T09:13:43.887Z,254.23
2023-04-08T09:14:43.898Z,253.05
2023-04-08T09:15:43.838Z,252.85
2023-04-08T09:16:43.307Z,256.81
2023-04-08T09:17:43.865Z,256.61
2023-04-08T09:18:43.860Z,260.07
2023-04-08T09:19:44.043Z,262.78
2023-04-08T09:20:43.772Z,268.58
2023-04-08T09:21:43.790Z,272.60
2023-04-08T09:22:43.767Z,273.05
2023-04-08T09:23:43.782Z,274.42
2023-04-08T09:24:43.014Z,277.21
2023-04-08T09:25:44.460Z,278.15
2023-04-08T09:26:43.717Z,282.21
2023-04-08T09:27:43.480Z,281.01
2023-04-08T09:28:42.969Z,283.68
2023-04-08T09:29:43.699Z,283.68
2023-04-08T09:30:43.186Z,286.90
2023-04-08T09:31:43.700Z,288.92
2023-04-08T09:32:42.928Z,291.75
2023-04-08T09:33:43.475Z,300.29
2023-04-08T09:34:43.488Z,308.77
2023-04-08T09:35:43.604Z,313.19
2023-04-08T09:36:43.593Z,317.43
2023-04-08T09:37:43.571Z,319.60
2023-04-08T09:38:42.822Z,322.74
2023-04-08T09:39:43.535Z,328.56
2023-04-08T09:40:42.840Z,329.55
2023-04-08T09:41:42.906Z,337.34
2023-04-08T09:42:42.967Z,338.04
2023-04-08T09:43:42.987Z,337.69
2023-04-08T09:44:43.026Z,333.57
2023-04-08T09:45:43.471Z,339.08
2023-04-08T09:46:43.449Z,342.63
2023-04-08T09:47:43.470Z,349.56
2023-04-08T09:48:42.704Z,364.31
2023-04-08T09:49:43.507Z,368.81
2023-04-08T09:50:43.379Z,373.43
2023-04-08T09:51:43.350Z,383.90
2023-04-08T09:52:43.372Z,386.79
2023-04-08T09:53:44.073Z,391.56
2023-04-08T09:54:44.051Z,392.95
2023-04-08T09:55:43.318Z,398.82
2023-04-08T09:56:43.321Z,399.54
2023-04-08T09:57:44.018Z,401.95
2023-04-08T09:58:44.006Z,410.86
2023-04-08T09:59:43.269Z,414.95
2023-04-08T10:00:43.292Z,418.86
2023-04-08T10:01:43.268Z,425.28
2023-04-08T10:02:43.410Z,429.94
2023-04-08T10:03:43.271Z,427.18
2023-04-08T10:04:42.489Z,434.99
2023-04-08T10:05:43.196Z,436.98
2023-04-08T10:06:43.160Z,441.61
2023-04-08T10:07:43.217Z,439.57
2023-04-08T10:08:43.159Z,438.42
2023-04-08T10:09:43.177Z,443.08
2023-04-08T10:10:43.142Z,443.37
2023-04-08T10:11:43.087Z,442.78
2023-04-08T10:12:42.506Z,441.03
2023-04-08T10:13:43.080Z,436.41
2023-04-08T10:14:43.069Z,436.98
2023-04-08T10:15:43.724Z,439.28
2023-04-08T10:16:43.046Z,440.74
2023-04-08T10:17:43.110Z,447.24
2023-04-08T10:18:43.013Z,463.08
2023-04-08T10:19:43.041Z,470.60
2023-04-08T10:20:42.521Z,479.39
2023-04-08T10:21:42.955Z,494.32
2023-04-08T10:22:42.977Z,505.18
2023-04-08T10:23:42.944Z,509.03
2023-04-08T10:24:42.932Z,514.53
2023-04-08T10:25:42.919Z,518.13
2023-04-08T10:26:43.134Z,521.78
2023-04-08T10:27:42.901Z,518.53
2023-04-08T10:28:42.348Z,513.74
2023-04-08T10:29:42.858Z,521.37
2023-04-08T10:30:42.852Z,527.98
2023-04-08T10:31:42.837Z,536.90
2023-04-08T10:32:42.849Z,537.77
2023-04-08T10:33:42.822Z,540.82
2023-04-08T10:34:42.058Z,539.51
2023-04-08T10:35:42.850Z,546.14
2023-04-08T10:36:42.039Z,547.48
2023-04-08T10:37:42.061Z,550.19
2023-04-08T10:38:42.829Z,568.97
2023-04-08T10:39:42.719Z,572.88
2023-04-08T10:40:42.802Z,576.84
2023-04-08T10:41:42.691Z,564.16
2023-04-08T10:42:42.666Z,560.36
2023-04-08T10:43:42.680Z,566.55
2023-04-08T10:44:41.920Z,562.25
2023-04-08T10:45:42.092Z,564.63
2023-04-08T10:46:42.663Z,573.87
2023-04-08T10:47:42.627Z,589.60
2023-04-08T10:48:42.659Z,604.02
2023-04-08T10:49:42.601Z,610.09
2023-04-08T10:50:42.573Z,625.55
2023-04-08T10:51:42.563Z,628.49
2023-04-08T10:52:41.819Z,637.51
2023-04-08T10:53:42.076Z,645.53
2023-04-08T10:54:42.535Z,649.30
2023-04-08T10:55:42.507Z,643.66
2023-04-08T10:56:42.492Z,642.42
2023-04-08T10:57:42.463Z,641.19
2023-04-08T10:58:42.459Z,632.67
2023-04-08T10:59:42.464Z,631.47
2023-04-08T11:00:42.073Z,633.87
2023-04-08T11:01:42.151Z,626.13
2023-04-08T11:02:42.480Z,624.96
2023-04-08T11:03:42.525Z,631.47
2023-04-08T11:04:43.102Z,622.63
2023-04-08T11:05:42.404Z,636.29
2023-04-08T11:06:42.368Z,650.57
2023-04-08T11:07:42.320Z,666.83
2023-04-08T11:08:42.340Z,683.93
2023-04-08T11:09:42.314Z,691.74
2023-04-08T11:10:42.313Z,718.57
2023-04-08T11:11:42.290Z,731.98
2023-04-08T11:12:42.262Z,745.07
2023-04-08T11:13:51.261Z,754.66
2023-04-08T11:14:43.254Z,754.66
2023-04-08T11:15:42.277Z,769.01
2023-04-08T11:16:41.513Z,765.92
2023-04-08T11:17:42.206Z,776.61
2023-04-08T11:18:42.869Z,787.15
2023-04-08T11:19:42.219Z,789.94
2023-04-08T11:20:42.395Z,801.80
2023-04-08T11:21:42.184Z,807.13
2023-04-08T11:22:42.112Z,812.04
2023-04-08T11:23:42.825Z,807.13
2023-04-08T11:24:42.133Z,803.25
2023-04-08T11:25:42.138Z,810.57
2023-04-08T11:26:42.115Z,807.13
2023-04-08T11:27:42.079Z,798.45
2023-04-08T11:28:42.308Z,781.62
2023-04-08T11:29:42.132Z,767.24
2023-04-08T11:30:42.710Z,770.78
2023-04-08T11:31:42.052Z,767.24
2023-04-08T11:32:42.754Z,771.23
2023-04-08T11:33:42.001Z,774.36
2023-04-08T11:34:42.001Z,792.76
2023-04-08T11:35:42.017Z,794.64
2023-04-08T11:36:42.187Z,805.19
2023-04-08T11:37:41.944Z,813.53
2023-04-08T11:38:41.943Z,805.67
2023-04-08T11:39:41.900Z,804.22
2023-04-08T11:40:41.912Z,809.58
2023-04-08T11:41:41.585Z,809.09
2023-04-08T11:42:42.119Z,809.09
2023-04-08T11:43:41.654Z,808.11
2023-04-08T11:44:41.833Z,802.77
2023-04-08T11:45:41.594Z,810.07
2023-04-08T11:46:41.657Z,814.52
2023-04-08T11:47:41.594Z,820.53
2023-04-08T11:48:41.366Z,823.57
2023-04-08T11:49:41.619Z,820.53
2023-04-08T11:50:41.754Z,830.74
2023-04-08T11:51:41.586Z,840.68
2023-04-08T11:52:41.716Z,851.95
2023-04-08T11:53:41.216Z,876.56
2023-04-08T11:54:41.734Z,884.11
2023-04-08T11:55:41.594Z,892.98
2023-04-08T11:56:41.618Z,897.18
2023-04-08T11:57:41.591Z,907.55
2023-04-08T11:58:41.648Z,909.40
2023-04-08T11:59:40.935Z,908.16
2023-04-08T12:00:42.313Z,899.60
2023-04-08T12:01:41.637Z,912.51
2023-04-08T12:02:41.624Z,899.60
2023-04-08T12:03:41.155Z,888.22
2023-04-08T12:04:41.634Z,897.18
2023-04-08T12:05:41.091Z,885.87
2023-04-08T12:06:41.568Z,874.84
2023-04-08T12:07:41.540Z,876.56
2023-04-08T12:08:41.494Z,873.69
2023-04-08T12:09:41.514Z,864.64
2023-04-08T12:10:41.729Z,856.87
2023-04-08T12:11:41.510Z,855.77
2023-04-08T12:12:42.135Z,850.86
2023-04-08T12:13:41.431Z,841.74
2023-04-08T12:14:41.437Z,832.81
2023-04-08T12:15:41.438Z,830.74
2023-04-08T12:16:42.388Z,827.14
2023-04-08T12:17:42.158Z,831.26
2023-04-08T12:18:42.112Z,831.78
2023-04-08T12:19:41.374Z,835.94
2023-04-08T12:20:42.082Z,833.85
2023-04-08T12:21:41.341Z,833.85
2023-04-08T12:22:41.329Z,835.42
2023-04-08T12:23:41.328Z,833.85
2023-04-08T12:24:41.300Z,834.90
2023-04-08T12:25:41.968Z,830.74
2023-04-08T12:26:41.299Z,833.85
2023-04-08T12:27:41.265Z,832.81
2023-04-08T12:28:41.211Z,832.81